Aviation Digital Data Service (ADDS)

Output produced by METARs form (0759 UTC 22 October 2014)
found at http://aviationweather.gov/adds/metars/
 
KDAG 220750Z AUTO 30009KT 10SM CLR 16/02 A2993 RMK AO2 SLP117 T01560022 402890144
KDAG 220520Z 2206/2306 27009KT P6SM FEW250 
     FM221800 VRB05KT P6SM FEW250 
     FM230300 27007KT P6SM FEW250
       
KEDW 220758Z AUTO 22007KT 10SM CLR 12/04 A2994 RMK AO2 SLP125 T01200039 402570116
TAF KEDW 2202/2308 27012KT 9999 BKN300 QNH2987INS 
     TEMPO 2202/2205 26012G18KT 
     BECMG 2204/2205 VRB06KT 9999 BKN300 QNH2996INS TX29/2223Z TN07/2213Z
       
KVCV 220735Z AUTO 26010KT 10SM CLR 13/02 A2997 RMK AO2
KONT 220753Z 00000KT 10SM SCT250 17/13 A2990 RMK AO2 SLP113 T01670128 402720144
KONT 220520Z 2206/2312 VRB04KT P6SM SKC 
     FM221300 VRB04KT 3SM BR HZ SKC 
     FM221600 VRB04KT P6SM SKC 
     FM222100 27009KT P6SM SKC 
     FM230300 VRB04KT P6SM SKC
       
KSNA 220753Z AUTO 00000KT 10SM CLR 19/16 A2988 RMK AO2 SLP115 T01890156 402610183 TSNO $
KSNA 220520Z 2206/2306 VRB04KT P6SM SKC 
     FM221200 VRB04KT 4SM BR HZ SKC 
     FM221700 21006KT P6SM SKC
       
KSAN 220751Z 00000KT 7SM CLR 19/16 A2989 RMK AO2 SLP122 T01890161 402440189
KSAN 220656Z 2207/2312 VRB04KT P6SM SCT010 
     FM221000 VRB04KT P6SM BKN010 
     FM221300 VRB04KT P6SM BKN008 
     FM221500 VRB04KT P6SM SCT010 
     FM222000 29009KT P6SM SKC 
     FM230100 VRB04KT P6SM SKC 
     FM231100 VRB04KT 5SM BR BKN007
       
KNID 220756Z AUTO 20006KT 10SM CLR 13/02 A2991 RMK AO2 SLP118 T01330017 402720106 $
TAF KNID 2123/2223 VRB05KT 9999 BKN270 QNH2980INS 
     BECMG 2202/2204 VRB06KT 9999 FEW270 QNH2983INS T08/2213Z T28/2222Z LAST NO AMD AFT 2205/ NEXT 2215
       
KNXP 220756Z AUTO 02003KT 10SM CLR 18/00 A2997 RMK AO2 SLP119 T01780000 402940161
TAF KNXP 2203/2303 VRB05KT 9999 SCT130 QNH2989INS 
     BECMG 2208/2210 30006KT 9999 FEW130 QNH2995INS 
     BECMG 2215/2217 VRB05KT 9999 SCT220 QNH2989INS AUTOMATED SENSOR METWATCH 2203 TIL 2315 T16/2213Z T29/2223Z
       
KPSP 220753Z AUTO 33006KT 10SM CLR 24/09 A2984 RMK AO2 SLP100 T02440089 403500194 TSNO $
KPSP 220520Z 2206/2306 VRB05KT P6SM SKC
       
KLAX 220753Z 11004KT 10SM CLR 18/16 A2987 RMK AO2 SLP114 T01780161 402330172 $
KLAX 220526Z 2206/2312 VRB03KT P6SM SKC 
     FM221900 26010KT P6SM SKC 
     FM230400 VRB03KT P6SM SKC
       
KCNO 220753Z AUTO 00000KT 5SM BR CLR 14/12 A2990 RMK AO2 SLP122 T01390122 402890133
KSMO 220751Z AUTO 00000KT 10SM CLR 17/14 A2987 RMK AO2 SLP113 T01720144 402330161
KLGB 220753Z AUTO 00000KT 9SM CLR 17/16 A2987 RMK AO2 SLP116 T01670156 402500167 TSNO
KLGB 220526Z 2206/2306 VRB03KT P6SM SKC 
     FM222000 19007KT P6SM SKC 
     FM222300 29008KT P6SM SKC 
     FM230300 VRB03KT P6SM SKC
       
KVNY 220751Z 00000KT 10SM CLR 17/12 A2988 RMK AO2 SLP110 T01720117 402830128
KVNY 220526Z 2206/2306 VRB03KT P6SM SKC 
     FM222100 14007KT P6SM SKC 
     FM230200 VRB03KT P6SM SKC
       
KBUR 220753Z 00000KT 10SM CLR 16/10 A2988 RMK AO2 SLP105 T01610100 402720161
KBUR 220526Z 2206/2306 VRB03KT P6SM SKC 
     FM222000 17008KT P6SM SKC 
     FM230200 VRB03KT P6SM SKC
       
KBFL 220754Z AUTO 08005KT 10SM BKN049 17/07 A3003 RMK AO2 SLP165 T01670072 402170144
KBFL 220536Z 2206/2306 VRB04KT P6SM SKC
       
KPMD 220753Z 13005KT 10SM CLR 12/02 A2996 RMK AO2 SLP129 T01170017 402670106
KPMD 220526Z 2206/2306 29010KT P6SM SKC 
     FM221300 VRB03KT P6SM SKC 
     FM222000 31012KT P6SM SKC 
     FM230500 VRB03KT P6SM SKC
       
KOXR 220751Z AUTO 08005KT 10SM CLR 16/11 A2987 RMK AO2 SLP112 T01610111 402390139
KOXR 220526Z 2206/2306 VRB03KT P6SM SKC 
     FM221100 05007KT P6SM SKC 
     FM221900 25010KT P6SM SKC 
     FM230100 VRB03KT P6SM SKC
       
KWJF 220756Z 29013KT 10SM CLR 14/04 A2995 RMK AO2 SLP133 T01440044 402440117
KWJF 220526Z 2206/2306 28014KT P6SM SKC 
     FM221200 VRB05KT P6SM SKC 
     FM222000 29014KT P6SM SKC 
     FM230500 30008KT P6SM SKC
       
KCMA 220755Z 03003KT 10SM CLR 14/10 A2986 RMK AO2 SLP120 T01440100 402500122
KFAT 220753Z 28003KT 10SM CLR 14/06 A3002 RMK AO2 SLP164 T01440061 402390139
KFAT 220536Z 2206/2306 32006KT P6SM SKC
       
KEED 220756Z AUTO 18005KT 10SM CLR 23/07 A2983 RMK AO2 SLP072 T02280072 403440206
KEED 220520Z 2206/2306 25006KT P6SM FEW250 
     FM221300 VRB05KT P6SM SCT250 
     FM222100 16007KT P6SM FEW250 
     FM230200 24007KT P6SM FEW250
       
KLSV 220758Z AUTO 32004KT 10SM CLR 18/M03 A2988 RMK AO2 SLP100 T01821033 403040182 $
TAF KLSV 2201/2307 22012KT 9999 SKC QNH2974INS 
     BECMG 2202/2203 VRB06KT 9999 SCT180 QNH2981INS 
     BECMG 2217/2218 16012KT 9999 FEW200 QNH2993INS 
     BECMG 2302/2303 VRB06KT 9999 SKC QNH2995INS TX28/2223Z TN14/2212Z
       
KLAS 220756Z 20006KT 10SM FEW250 19/M04 A2985 RMK AO2 SLP087 T01941039 403000194
KLAS 220520Z 2206/2306 19010KT P6SM SCT250 
     FM221500 VRB05KT P6SM SCT250 
     FM221900 08006KT P6SM SCT250 
     FM230200 19008KT P6SM FEW250
       
KHII 220735Z AUTO 12004KT 10SM CLR 24/08 A2982 RMK AO2
KIFP 220755Z AUTO 11004KT 10SM CLR 22/03 A2984 RMK AO2 PWINO